Time;durP1;ratioP1;P1;durP2;ratioP2;P2;SDS_P1;SDS_P2;PMS_P1;PMS_P2;Temp;Humidity;BMP_temperature;BMP_pressure;BME280_temperature;BME280_humidity;BME280_pressure;Samples;Min_cycle;Max_cycle;Signal;HPM_P1;HPM_P2
2021/06/22 05:30:07;;;;;;;;;10.75;8.00;;;;;;;;5095426;27;47090;-87
2021/06/22 05:51:52;;;;;;;;;;;;;;;;;;;;;
2021/06/22 05:58:06;;;;;;;;;;;;;;;;;;;;;
2021/06/22 07:07:55;;;;;;;;;9.75;8.50;;;;;;;;5018314;28;47169;-86
2021/06/22 07:10:20;;;;;;;;;10.00;9.50;;;;;;;;5020852;28;47022;-85
2021/06/22 07:12:46;;;;;;;;;10.50;9.75;;;;;;;;5020604;28;46924;-84
2021/06/22 07:15:12;;;;;;;;;10.00;9.00;;;;;;;;5019701;28;47040;-83
2021/06/22 07:17:37;;;;;;;;;11.75;9.50;;;;;;;;5020374;28;47650;-83
2021/06/22 07:20:03;;;;;;;;;10.00;10.00;;;;;;;;5019046;28;46924;-84
2021/06/22 07:22:29;;;;;;;;;14.00;12.00;;;;;;;;5020475;28;46898;-83
2021/06/22 07:24:54;;;;;;;;;9.25;9.00;;;;;;;;5012610;28;46772;-83
2021/06/22 07:27:19;;;;;;;;;11.50;10.00;;;;;;;;5020209;28;47761;-84
2021/06/22 07:29:45;;;;;;;;;8.50;8.50;;;;;;;;5020547;28;47028;-86
2021/06/22 07:32:10;;;;;;;;;13.25;10.50;;;;;;;;5020611;28;46744;-86
2021/06/22 07:34:36;;;;;;;;;13.50;12.50;;;;;;;;5020114;28;46811;-86
2021/06/22 07:37:02;;;;;;;;;15.00;10.25;;;;;;;;5020015;28;48015;-86
2021/06/22 07:39:27;;;;;;;;;14.50;13.25;;;;;;;;5002446;28;47191;-86
2021/06/22 07:41:53;;;;;;;;;15.25;13.50;;;;;;;;5020159;28;47028;-85
2021/06/22 07:44:18;;;;;;;;;14.75;13.75;;;;;;;;5020444;28;46999;-85
2021/06/22 07:46:43;;;;;;;;;27.50;25.75;;;;;;;;5018524;28;49220;-85
2021/06/22 07:49:09;;;;;;;;;27.50;24.00;;;;;;;;5018903;28;47032;-85
2021/06/22 07:51:34;;;;;;;;;31.50;26.75;;;;;;;;5019959;28;47040;-84
2021/06/22 07:53:59;;;;;;;;;27.00;25.00;;;;;;;;5020138;28;46861;-84
2021/06/22 07:56:25;;;;;;;;;30.00;28.00;;;;;;;;5019695;28;47793;-84
2021/06/22 07:58:50;;;;;;;;;32.50;29.25;;;;;;;;5019921;28;46904;-84
2021/06/22 08:01:16;;;;;;;;;29.75;27.00;;;;;;;;5019716;28;46957;-84
2021/06/22 08:03:42;;;;;;;;;28.50;25.75;;;;;;;;5019724;28;46985;-84
2021/06/22 08:06:07;;;;;;;;;26.00;25.25;;;;;;;;5019660;28;46964;-84
2021/06/22 08:08:32;;;;;;;;;32.00;29.00;;;;;;;;5019853;28;46878;-85
2021/06/22 08:10:58;;;;;;;;;26.75;25.50;;;;;;;;5019714;28;46992;-87
2021/06/22 08:13:26;;;;;;;;;28.50;23.50;;;;;;;;5020027;28;46977;-87
2021/06/22 08:15:52;;;;;;;;;31.25;27.00;;;;;;;;5019405;28;46949;-86
2021/06/22 08:18:17;;;;;;;;;27.75;23.00;;;;;;;;5019510;28;46988;-85
2021/06/22 08:20:43;;;;;;;;;21.50;16.75;;;;;;;;5018130;28;46989;-84
2021/06/22 08:23:09;;;;;;;;;18.50;16.25;;;;;;;;5016368;28;46893;-84
2021/06/22 08:25:34;;;;;;;;;26.50;22.00;;;;;;;;5014871;28;47081;-85
2021/06/22 08:28:00;;;;;;;;;23.25;21.00;;;;;;;;5019557;28;46988;-85
2021/06/22 08:30:26;;;;;;;;;25.00;21.00;;;;;;;;5018764;28;46940;-85
2021/06/22 08:32:52;;;;;;;;;23.25;23.25;;;;;;;;5018530;28;47208;-85
2021/06/22 08:35:17;;;;;;;;;20.00;19.25;;;;;;;;5018818;28;46987;-86
2021/06/22 08:37:43;;;;;;;;;30.50;23.50;;;;;;;;5019159;28;46860;-87
2021/06/22 08:40:09;;;;;;;;;22.50;19.75;;;;;;;;5019268;28;47156;-87
2021/06/22 08:42:36;;;;;;;;;21.75;15.75;;;;;;;;5019294;28;46952;-87
2021/06/22 08:45:03;;;;;;;;;20.50;20.00;;;;;;;;5018964;28;46898;-87
2021/06/22 08:47:29;;;;;;;;;20.00;19.00;;;;;;;;5018998;28;47029;-87
2021/06/22 08:49:56;;;;;;;;;22.00;19.75;;;;;;;;5018797;28;46960;-87
2021/06/22 08:52:26;;;;;;;;;23.75;20.75;;;;;;;;5019501;28;47048;-87
2021/06/22 08:54:52;;;;;;;;;24.25;21.25;;;;;;;;5018881;28;47152;-87
2021/06/22 08:57:18;;;;;;;;;24.75;18.25;;;;;;;;5019329;28;47311;-87
2021/06/22 08:59:44;;;;;;;;;17.75;16.50;;;;;;;;5011867;28;47167;-88
2021/06/22 09:02:09;;;;;;;;;20.25;18.50;;;;;;;;5018777;28;47076;-87
2021/06/22 09:04:35;;;;;;;;;24.25;22.75;;;;;;;;5018037;28;48095;-87
2021/06/22 09:07:00;;;;;;;;;18.25;18.25;;;;;;;;5018731;28;47211;-87
2021/06/22 09:09:34;;;;;;;;;20.25;18.75;;;;;;;;5018614;28;47135;-86
2021/06/22 09:12:08;;;;;;;;;25.25;19.75;;;;;;;;5018008;28;47063;-87
2021/06/22 09:14:34;;;;;;;;;21.50;17.75;;;;;;;;5018470;28;48110;-86
2021/06/22 09:17:00;;;;;;;;;22.00;19.75;;;;;;;;5017210;28;47011;-86
2021/06/22 09:19:26;;;;;;;;;20.25;18.25;;;;;;;;5015159;28;47048;-86
2021/06/22 09:21:53;;;;;;;;;20.75;19.25;;;;;;;;5017994;28;47098;-86
2021/06/22 09:24:19;;;;;;;;;17.25;17.25;;;;;;;;5010017;28;48009;-86
2021/06/22 09:26:46;;;;;;;;;19.75;19.00;;;;;;;;5000738;28;46968;-86
2021/06/22 09:29:14;;;;;;;;;19.50;17.25;;;;;;;;5018727;28;47029;-85
2021/06/22 09:31:51;;;;;;;;;21.00;18.00;;;;;;;;5018758;28;47024;-85
2021/06/22 09:34:18;;;;;;;;;18.50;17.00;;;;;;;;5014884;28;47099;-85
2021/06/22 09:36:48;;;;;;;;;18.75;18.25;;;;;;;;5018013;28;47056;-85
2021/06/22 09:39:14;;;;;;;;;26.00;21.25;;;;;;;;5017872;28;47209;-86
2021/06/22 09:41:41;;;;;;;;;26.00;21.00;;;;;;;;5018461;28;47278;-85
2021/06/22 09:44:07;;;;;;;;;23.50;20.00;;;;;;;;5018605;28;47766;-86
2021/06/22 09:46:35;;;;;;;;;25.00;22.50;;;;;;;;5018465;28;46906;-86
2021/06/22 09:49:01;;;;;;;;;20.00;18.25;;;;;;;;5018290;28;46909;-85
2021/06/22 09:51:35;;;;;;;;;22.75;19.00;;;;;;;;5018476;28;47246;-85
2021/06/22 09:54:11;;;;;;;;;19.75;17.50;;;;;;;;5018399;28;46886;-86
2021/06/22 09:56:36;;;;;;;;;22.00;20.50;;;;;;;;5016948;28;47167;-86
2021/06/22 09:59:08;;;;;;;;;27.75;19.75;;;;;;;;5017688;28;46926;-85
2021/06/22 10:01:37;;;;;;;;;24.50;22.25;;;;;;;;5018106;28;47065;-86
2021/06/22 10:04:13;;;;;;;;;22.25;20.50;;;;;;;;5018212;28;47871;-86
2021/06/22 10:06:38;;;;;;;;;20.50;18.75;;;;;;;;5017993;28;46949;-86
2021/06/22 10:09:04;;;;;;;;;17.50;17.00;;;;;;;;5018050;28;46996;-85
2021/06/22 10:11:29;;;;;;;;;24.75;19.50;;;;;;;;5018369;28;47072;-87
2021/06/22 10:13:54;;;;;;;;;25.00;22.75;;;;;;;;5021263;28;47827;-84
2021/06/22 10:16:24;;;;;;;;;26.00;23.00;;;;;;;;5021486;28;46941;-82
2021/06/22 10:18:49;;;;;;;;;23.25;22.75;;;;;;;;5003116;28;46796;-81
2021/06/22 10:21:15;;;;;;;;;26.50;25.00;;;;;;;;5022026;28;46865;-81
2021/06/22 10:23:41;;;;;;;;;26.50;24.25;;;;;;;;5013315;28;48171;-81
2021/06/22 10:26:07;;;;;;;;;29.25;26.25;;;;;;;;5021088;28;46949;-81
2021/06/22 10:28:33;;;;;;;;;34.50;29.75;;;;;;;;5021273;28;46972;-80
2021/06/22 10:30:59;;;;;;;;;31.50;27.25;;;;;;;;5021424;28;46979;-80
2021/06/22 10:33:24;;;;;;;;;33.50;27.25;;;;;;;;5020596;28;46951;-80
2021/06/22 10:35:50;;;;;;;;;32.50;29.25;;;;;;;;5021359;28;47094;-80
2021/06/22 10:38:16;;;;;;;;;34.75;29.75;;;;;;;;5020993;28;46853;-81
2021/06/22 10:40:42;;;;;;;;;31.75;30.00;;;;;;;;5021353;28;47021;-81
2021/06/22 10:43:07;;;;;;;;;33.00;32.00;;;;;;;;5020857;28;47210;-81
2021/06/22 10:45:32;;;;;;;;;33.75;31.00;;;;;;;;5016027;28;46937;-80
2021/06/22 10:48:02;;;;;;;;;31.25;30.25;;;;;;;;5019974;28;46908;-80
2021/06/22 10:50:31;;;;;;;;;32.75;30.75;;;;;;;;5020514;28;47069;-81
2021/06/22 10:52:58;;;;;;;;;26.25;24.25;;;;;;;;5003027;28;48956;-82
2021/06/22 10:55:35;;;;;;;;;27.75;25.25;;;;;;;;5021016;28;47153;-81
2021/06/22 10:58:06;;;;;;;;;23.25;22.50;;;;;;;;5020766;28;46807;-81
2021/06/22 11:00:48;;;;;;;;;24.75;22.75;;;;;;;;5021116;28;47040;-81
2021/06/22 11:03:21;;;;;;;;;24.75;21.75;;;;;;;;5002458;28;49233;-81
2021/06/22 11:05:46;;;;;;;;;21.50;21.25;;;;;;;;5020402;28;46881;-80
2021/06/22 11:08:12;;;;;;;;;21.50;19.75;;;;;;;;5020661;28;46822;-81
2021/06/22 11:10:38;;;;;;;;;23.75;22.00;;;;;;;;5021004;28;46858;-80
2021/06/22 11:13:04;;;;;;;;;28.50;23.75;;;;;;;;5020530;28;47011;-81
2021/06/22 11:15:49;;;;;;;;;23.75;20.50;;;;;;;;5020538;28;46910;-80
2021/06/22 11:18:17;;;;;;;;;25.50;23.75;;;;;;;;5020240;28;46967;-80
2021/06/22 11:21:05;;;;;;;;;27.00;23.25;;;;;;;;5020641;28;46989;-81
2021/06/22 11:23:31;;;;;;;;;26.00;21.75;;;;;;;;5020107;28;46899;-83
2021/06/22 11:26:04;;;;;;;;;19.25;18.75;;;;;;;;5024751;28;46925;-83
2021/06/22 11:28:47;;;;;;;;;18.25;15.75;;;;;;;;5036857;28;29441;-83
2021/06/22 11:31:30;;;;;;;;;12.75;12.00;;;;;;;;5037055;28;29340;-81
2021/06/22 11:34:03;;;;;;;;;18.75;16.25;;;;;;;;5036209;28;29501;-81
2021/06/22 11:36:28;;;;;;;;;15.25;11.50;;;;;;;;5036693;28;29392;-81
2021/06/22 11:39:11;;;;;;;;;9.00;9.00;;;;;;;;5036473;28;29397;-81
2021/06/22 11:41:36;;;;;;;;;11.25;10.00;;;;;;;;5036597;28;29353;-80
2021/06/22 11:44:08;;;;;;;;;7.50;7.50;;;;;;;;5036821;28;30390;-82
2021/06/22 11:46:34;;;;;;;;;9.00;8.75;;;;;;;;5036353;28;29480;-81
2021/06/22 11:49:00;;;;;;;;;6.75;6.00;;;;;;;;5036121;28;29466;-82
2021/06/22 11:51:44;;;;;;;;;4.25;4.00;;;;;;;;5036600;28;29354;-80
2021/06/22 11:54:09;;;;;;;;;5.75;4.25;;;;;;;;5036339;28;29801;-81
2021/06/22 11:56:35;;;;;;;;;4.00;3.00;;;;;;;;5018256;28;29684;-81
2021/06/22 11:59:01;;;;;;;;;4.50;4.00;;;;;;;;5036350;28;29471;-84
2021/06/22 12:01:26;;;;;;;;;3.25;3.00;;;;;;;;5036614;28;29306;-84
2021/06/22 12:03:54;;;;;;;;;8.00;4.75;;;;;;;;5035923;28;29396;-83
2021/06/22 12:06:24;;;;;;;;;2.75;2.75;;;;;;;;5035813;28;29507;-83
2021/06/22 12:08:50;;;;;;;;;3.00;3.00;;;;;;;;5036219;28;29309;-83
2021/06/22 12:11:28;;;;;;;;;4.75;4.75;;;;;;;;5036232;28;29495;-82
2021/06/22 12:13:54;;;;;;;;;5.00;4.00;;;;;;;;5035977;28;29677;-84
2021/06/22 12:16:23;;;;;;;;;5.00;4.25;;;;;;;;5036331;28;29451;-81
2021/06/22 12:18:48;;;;;;;;;5.25;3.75;;;;;;;;5035607;28;29583;-82
2021/06/22 12:21:13;;;;;;;;;4.75;3.00;;;;;;;;5036352;28;29326;-83
2021/06/22 12:23:41;;;;;;;;;3.50;3.00;;;;;;;;5027874;28;30136;-82
2021/06/22 12:26:06;;;;;;;;;6.00;4.00;;;;;;;;5031897;28;30374;-82
2021/06/22 12:28:33;;;;;;;;;6.50;4.00;;;;;;;;5035123;28;37752;-81
2021/06/22 12:30:59;;;;;;;;;5.25;4.50;;;;;;;;5034235;28;44660;-81
2021/06/22 12:33:25;;;;;;;;;5.00;4.00;;;;;;;;5035246;28;41898;-82
2021/06/22 12:35:52;;;;;;;;;3.00;3.00;;;;;;;;5017358;28;30017;-82
2021/06/22 12:38:18;;;;;;;;;5.50;4.00;;;;;;;;5035672;28;29479;-81
2021/06/22 12:40:52;;;;;;;;;3.25;2.25;;;;;;;;5033484;28;45371;-82
2021/06/22 12:43:18;;;;;;;;;2.00;2.00;;;;;;;;5034472;28;37357;-82
2021/06/22 12:45:46;;;;;;;;;4.00;3.75;;;;;;;;5032261;28;46153;-81
2021/06/22 12:48:11;;;;;;;;;3.50;3.25;;;;;;;;5030746;28;41840;-81
2021/06/22 12:50:39;;;;;;;;;4.00;3.50;;;;;;;;5035035;28;29807;-82
2021/06/22 12:53:04;;;;;;;;;5.75;3.00;;;;;;;;5035234;28;29476;-80
2021/06/22 12:55:45;;;;;;;;;4.50;4.50;;;;;;;;5035258;28;29514;-81
2021/06/22 12:58:11;;;;;;;;;6.75;4.75;;;;;;;;5035372;28;29447;-80
2021/06/22 13:00:39;;;;;;;;;6.25;4.50;;;;;;;;5035593;28;29281;-80
2021/06/22 13:03:09;;;;;;;;;4.00;4.00;;;;;;;;5034795;28;29626;-81
2021/06/22 13:05:36;;;;;;;;;6.00;5.00;;;;;;;;5035102;28;29531;-80
2021/06/22 13:08:01;;;;;;;;;7.00;7.00;;;;;;;;5035203;28;29402;-81
2021/06/22 13:10:27;;;;;;;;;8.75;7.00;;;;;;;;5017355;28;29569;-81
2021/06/22 13:12:52;;;;;;;;;9.75;8.00;;;;;;;;5034918;28;29413;-82
2021/06/22 13:15:17;;;;;;;;;8.25;8.25;;;;;;;;5035272;28;29620;-81
2021/06/22 13:17:53;;;;;;;;;6.75;6.75;;;;;;;;5034498;28;29597;-81
2021/06/22 13:20:22;;;;;;;;;4.50;3.75;;;;;;;;5035298;28;29436;-83
2021/06/22 13:22:48;;;;;;;;;9.00;8.50;;;;;;;;5034864;28;29440;-81
2021/06/22 13:25:15;;;;;;;;;10.50;7.00;;;;;;;;5034933;28;33354;-82
2021/06/22 13:27:44;;;;;;;;;7.50;7.50;;;;;;;;5027436;28;45095;-82
2021/06/22 13:30:14;;;;;;;;;9.25;8.50;;;;;;;;5021314;28;46697;-83
2021/06/22 13:32:43;;;;;;;;;10.25;9.25;;;;;;;;5018833;28;46873;-82
2021/06/22 13:35:16;;;;;;;;;11.50;9.25;;;;;;;;5018864;28;46490;-82
2021/06/22 13:37:59;;;;;;;;;14.75;11.75;;;;;;;;5018566;28;46825;-83
2021/06/22 13:40:26;;;;;;;;;11.50;9.25;;;;;;;;5020766;28;46326;-83
2021/06/22 13:43:10;;;;;;;;;11.25;9.75;;;;;;;;5034012;28;43897;-83
2021/06/22 13:45:42;;;;;;;;;14.75;13.75;;;;;;;;5034843;28;29397;-83
2021/06/22 13:48:18;;;;;;;;;11.00;9.00;;;;;;;;5036911;28;29389;-83
2021/06/22 13:50:43;;;;;;;;;14.00;11.00;;;;;;;;5024416;28;46690;-83
2021/06/22 13:53:17;;;;;;;;;11.00;9.25;;;;;;;;5023158;28;46590;-83
2021/06/22 13:55:42;;;;;;;;;10.50;8.50;;;;;;;;5036801;28;36844;-84
2021/06/22 13:58:12;;;;;;;;;7.75;6.50;;;;;;;;5038431;28;29560;-84
2021/06/22 14:00:39;;;;;;;;;9.50;7.75;;;;;;;;5035670;28;46672;-84
2021/06/22 14:03:06;;;;;;;;;10.25;9.25;;;;;;;;5022931;28;46849;-84
2021/06/22 14:05:32;;;;;;;;;9.75;9.25;;;;;;;;5032305;28;46906;-83
2021/06/22 14:07:59;;;;;;;;;9.75;5.50;;;;;;;;5037584;28;38595;-84
2021/06/22 14:10:24;;;;;;;;;9.00;8.25;;;;;;;;5040971;28;39225;-84
2021/06/22 14:12:50;;;;;;;;;12.00;9.50;;;;;;;;5058576;28;8843;-84
2021/06/22 14:15:16;;;;;;;;;8.00;8.00;;;;;;;;5040943;28;8809;-85
2021/06/22 14:17:42;;;;;;;;;8.00;8.00;;;;;;;;5054287;28;45634;-84
2021/06/22 14:20:08;;;;;;;;;10.00;10.00;;;;;;;;5003952;28;46910;-85
2021/06/22 14:22:34;;;;;;;;;10.50;8.75;;;;;;;;5003315;28;48670;-86
2021/06/22 14:24:59;;;;;;;;;7.25;7.00;;;;;;;;5003337;28;47569;-84
2021/06/22 14:27:24;;;;;;;;;7.00;7.00;;;;;;;;5021391;28;46831;-85
2021/06/22 14:29:49;;;;;;;;;9.25;8.50;;;;;;;;5003728;28;47024;-84
2021/06/22 14:32:16;;;;;;;;;8.25;7.75;;;;;;;;5021245;28;47689;-85
2021/06/22 14:34:41;;;;;;;;;10.00;8.50;;;;;;;;5021123;28;46994;-85
2021/06/22 14:37:06;;;;;;;;;10.50;8.25;;;;;;;;5021225;28;46929;-86
2021/06/22 14:39:32;;;;;;;;;7.50;7.00;;;;;;;;5021711;28;47000;-85
2021/06/22 14:41:57;;;;;;;;;11.25;9.75;;;;;;;;5004731;28;46678;-85
2021/06/22 14:44:22;;;;;;;;;10.50;9.75;;;;;;;;5005542;28;46513;-84
2021/06/22 14:46:48;;;;;;;;;11.75;9.00;;;;;;;;5016060;28;46774;-83
2021/06/22 14:49:13;;;;;;;;;9.75;9.50;;;;;;;;5020671;28;46995;-84
2021/06/22 14:51:38;;;;;;;;;11.25;9.75;;;;;;;;5020276;28;47132;-85
2021/06/22 14:54:04;;;;;;;;;8.00;7.50;;;;;;;;5021069;28;46865;-85
2021/06/22 14:56:29;;;;;;;;;10.00;8.00;;;;;;;;5020871;28;46822;-84
2021/06/22 14:58:54;;;;;;;;;9.75;8.75;;;;;;;;5021800;28;47198;-85
2021/06/22 15:01:20;;;;;;;;;10.00;9.00;;;;;;;;5002884;28;49392;-85
2021/06/22 15:03:45;;;;;;;;;9.75;9.25;;;;;;;;5003369;28;46807;-87
2021/06/22 15:06:14;;;;;;;;;6.75;6.00;;;;;;;;5020613;28;47000;-84
2021/06/22 15:08:40;;;;;;;;;13.50;11.75;;;;;;;;5021156;28;47107;-84
2021/06/22 15:11:05;;;;;;;;;13.25;11.25;;;;;;;;5020554;28;47829;-85
2021/06/22 15:13:31;;;;;;;;;15.00;11.50;;;;;;;;5020618;28;46954;-86
2021/06/22 15:15:56;;;;;;;;;10.00;8.50;;;;;;;;5020629;28;47048;-85
2021/06/22 15:18:21;;;;;;;;;11.00;10.75;;;;;;;;5020594;28;46842;-84
2021/06/22 15:20:46;;;;;;;;;10.50;10.50;;;;;;;;5003006;28;48102;-85
2021/06/22 15:23:12;;;;;;;;;11.00;10.00;;;;;;;;5020459;28;47035;-85
2021/06/22 15:25:39;;;;;;;;;12.75;11.00;;;;;;;;5020297;28;47017;-86
2021/06/22 15:28:05;;;;;;;;;11.00;9.50;;;;;;;;5022045;28;46436;-84
2021/06/22 15:30:30;;;;;;;;;9.50;9.00;;;;;;;;5021006;28;47088;-83
2021/06/22 15:32:56;;;;;;;;;10.25;10.00;;;;;;;;5020599;28;46510;-84
2021/06/22 15:35:22;;;;;;;;;11.50;11.50;;;;;;;;5035812;28;40618;-85
2021/06/22 15:37:48;;;;;;;;;12.75;10.75;;;;;;;;5031063;28;45629;-83
2021/06/22 15:40:14;;;;;;;;;8.50;8.50;;;;;;;;5033124;28;47833;-83
2021/06/22 15:42:41;;;;;;;;;8.75;8.50;;;;;;;;5021614;28;46977;-83
2021/06/22 15:45:07;;;;;;;;;11.00;10.00;;;;;;;;5020089;28;47070;-83
2021/06/22 15:47:34;;;;;;;;;8.75;8.75;;;;;;;;5026057;28;46662;-82
2021/06/22 15:49:59;;;;;;;;;11.00;10.25;;;;;;;;5030378;28;46167;-82
2021/06/22 15:52:24;;;;;;;;;10.25;10.00;;;;;;;;5032382;28;46188;-83
2021/06/22 15:54:50;;;;;;;;;9.00;8.75;;;;;;;;5032141;28;46358;-83
2021/06/22 15:57:15;;;;;;;;;13.00;11.00;;;;;;;;5034756;28;45469;-83
2021/06/22 15:59:40;;;;;;;;;9.00;8.25;;;;;;;;5022332;28;46899;-84
2021/06/22 16:02:06;;;;;;;;;13.25;10.75;;;;;;;;5031197;28;46849;-83
2021/06/22 16:04:33;;;;;;;;;11.00;10.00;;;;;;;;5034693;28;42171;-83
2021/06/22 16:06:58;;;;;;;;;10.75;10.75;;;;;;;;5015466;28;46308;-83
2021/06/22 16:09:23;;;;;;;;;9.75;9.75;;;;;;;;5035141;28;29503;-85
2021/06/22 16:11:49;;;;;;;;;9.25;9.25;;;;;;;;5035703;28;41456;-83
2021/06/22 16:14:14;;;;;;;;;6.25;5.50;;;;;;;;5031964;28;46918;-83
2021/06/22 16:16:39;;;;;;;;;8.00;8.00;;;;;;;;5035821;28;39865;-84
2021/06/22 16:19:05;;;;;;;;;11.00;10.00;;;;;;;;5035310;28;29495;-83
2021/06/22 16:21:30;;;;;;;;;9.00;9.00;;;;;;;;5036130;28;29495;-83
2021/06/22 16:23:56;;;;;;;;;8.00;8.00;;;;;;;;5017649;28;29710;-83
2021/06/22 16:26:21;;;;;;;;;13.25;9.75;;;;;;;;5034648;28;42482;-83
2021/06/22 16:28:47;;;;;;;;;8.75;7.25;;;;;;;;5035859;28;29538;-83
2021/06/22 16:31:13;;;;;;;;;11.25;9.00;;;;;;;;5035911;28;29436;-83
2021/06/22 16:33:38;;;;;;;;;7.00;6.50;;;;;;;;5033254;28;46112;-84
2021/06/22 16:36:04;;;;;;;;;10.00;9.00;;;;;;;;5035409;28;37607;-84
2021/06/22 16:38:30;;;;;;;;;10.00;9.25;;;;;;;;5017585;28;29522;-83
2021/06/22 16:40:55;;;;;;;;;10.50;9.00;;;;;;;;5035856;28;29235;-83
2021/06/22 16:43:20;;;;;;;;;9.25;7.00;;;;;;;;5030876;28;46362;-85
2021/06/22 16:45:46;;;;;;;;;11.25;9.75;;;;;;;;5029724;28;44289;-83
2021/06/22 16:48:12;;;;;;;;;8.00;8.00;;;;;;;;5023800;28;46423;-82
2021/06/22 16:50:37;;;;;;;;;12.50;11.50;;;;;;;;5016947;28;29416;-82
2021/06/22 16:53:03;;;;;;;;;10.25;9.00;;;;;;;;5024446;28;46998;-82
2021/06/22 16:55:29;;;;;;;;;12.00;10.00;;;;;;;;5029898;28;46696;-83
2021/06/22 16:57:57;;;;;;;;;11.50;10.50;;;;;;;;5027143;28;47655;-82
2021/06/22 17:00:23;;;;;;;;;11.25;9.25;;;;;;;;5026834;28;46994;-83
2021/06/22 17:02:49;;;;;;;;;12.00;10.25;;;;;;;;5032483;28;47012;-82
2021/06/22 17:05:14;;;;;;;;;11.00;10.25;;;;;;;;5035611;28;29257;-83
2021/06/22 17:07:40;;;;;;;;;11.75;10.25;;;;;;;;5017126;28;29371;-81
2021/06/22 17:10:05;;;;;;;;;11.25;9.00;;;;;;;;5034958;28;45432;-81
2021/06/22 17:12:31;;;;;;;;;12.00;12.00;;;;;;;;5022573;28;46824;-80
2021/06/22 17:14:56;;;;;;;;;13.00;9.50;;;;;;;;5016975;28;38260;-82
2021/06/22 17:17:21;;;;;;;;;13.50;12.25;;;;;;;;5034780;28;41697;-80
2021/06/22 17:19:47;;;;;;;;;11.50;10.75;;;;;;;;5034877;28;29974;-81
2021/06/22 17:22:12;;;;;;;;;13.25;12.25;;;;;;;;5034406;28;42793;-80
2021/06/22 17:24:38;;;;;;;;;11.75;10.50;;;;;;;;5027215;28;35244;-82
2021/06/22 17:27:03;;;;;;;;;15.25;10.50;;;;;;;;5034772;28;29431;-82
2021/06/22 17:29:30;;;;;;;;;7.00;7.00;;;;;;;;5035298;28;29545;-82
2021/06/22 17:31:55;;;;;;;;;13.00;12.00;;;;;;;;5034933;28;29442;-81
2021/06/22 17:34:21;;;;;;;;;15.50;13.25;;;;;;;;5024608;28;29615;-93
2021/06/22 17:36:46;;;;;;;;;14.00;13.00;;;;;;;;5006958;28;44828;-82
2021/06/22 17:39:12;;;;;;;;;15.00;13.50;;;;;;;;5030320;28;46356;-82
2021/06/22 17:41:37;;;;;;;;;10.00;10.00;;;;;;;;5031585;28;44738;-82
2021/06/22 17:44:03;;;;;;;;;15.50;14.25;;;;;;;;5031221;28;29560;-82
2021/06/22 17:46:28;;;;;;;;;13.75;13.75;;;;;;;;5029622;28;46786;-81
2021/06/22 17:48:54;;;;;;;;;14.25;14.25;;;;;;;;5003121;28;47028;-83
2021/06/22 17:51:20;;;;;;;;;16.00;14.25;;;;;;;;5023714;28;45489;-83
2021/06/22 17:53:45;;;;;;;;;15.25;14.75;;;;;;;;5018620;28;47099;-84
2021/06/22 17:56:11;;;;;;;;;16.00;15.00;;;;;;;;5017447;28;47019;-82
2021/06/22 17:58:36;;;;;;;;;16.25;14.00;;;;;;;;5017609;28;46850;-82
2021/06/22 18:01:03;;;;;;;;;22.00;16.25;;;;;;;;5017625;28;46838;-83
2021/06/22 18:03:29;;;;;;;;;18.25;17.75;;;;;;;;5017302;28;47071;-82
2021/06/22 18:05:55;;;;;;;;;18.00;16.50;;;;;;;;4999121;28;48550;-82
2021/06/22 18:08:21;;;;;;;;;21.25;17.50;;;;;;;;5011969;28;46972;-81
2021/06/22 18:10:47;;;;;;;;;20.25;18.00;;;;;;;;5017498;28;47114;-81
2021/06/22 18:13:13;;;;;;;;;18.75;14.75;;;;;;;;5017751;28;47195;-84
2021/06/22 18:15:39;;;;;;;;;25.25;20.50;;;;;;;;5021153;28;48177;-85
2021/06/22 18:18:05;;;;;;;;;25.75;22.75;;;;;;;;5027141;28;46771;-82
2021/06/22 18:20:30;;;;;;;;;25.75;19.50;;;;;;;;5017870;28;46874;-83
2021/06/22 18:22:57;;;;;;;;;24.25;22.75;;;;;;;;5018525;28;47240;-83
2021/06/22 18:25:23;;;;;;;;;25.00;21.00;;;;;;;;5021617;28;46424;-83
2021/06/22 18:27:49;;;;;;;;;25.00;24.75;;;;;;;;5017340;28;47193;-80
2021/06/22 18:30:16;;;;;;;;;26.50;26.50;;;;;;;;5026425;28;46934;-83
2021/06/22 18:32:42;;;;;;;;;27.50;25.50;;;;;;;;5010884;28;46348;-85
2021/06/22 18:35:08;;;;;;;;;34.00;30.25;;;;;;;;5029877;28;29652;-85
2021/06/22 18:37:34;;;;;;;;;28.75;26.75;;;;;;;;5037051;28;29687;-82
2021/06/22 18:39:59;;;;;;;;;28.25;25.25;;;;;;;;5037176;28;29385;-83
2021/06/22 18:42:26;;;;;;;;;37.75;28.25;;;;;;;;5022023;28;47150;-84
2021/06/22 18:44:52;;;;;;;;;35.00;29.50;;;;;;;;5032675;28;46770;-83
2021/06/22 18:47:18;;;;;;;;;27.25;25.75;;;;;;;;5034561;28;41155;-84
2021/06/22 18:49:43;;;;;;;;;32.00;30.75;;;;;;;;5024203;28;47192;-83
2021/06/22 18:52:09;;;;;;;;;27.00;24.00;;;;;;;;5028854;28;46873;-84
2021/06/22 18:54:35;;;;;;;;;33.50;28.00;;;;;;;;5034989;28;46439;-82
2021/06/22 18:57:00;;;;;;;;;31.00;26.00;;;;;;;;5028161;28;46941;-84
2021/06/22 18:59:25;;;;;;;;;30.75;26.75;;;;;;;;5031325;28;46924;-84
2021/06/22 19:01:51;;;;;;;;;26.50;23.50;;;;;;;;5032902;28;46894;-83
2021/06/22 19:04:17;;;;;;;;;27.75;27.75;;;;;;;;5036335;28;29530;-85
2021/06/22 19:06:43;;;;;;;;;29.75;25.00;;;;;;;;5036545;28;29720;-82
2021/06/22 19:09:08;;;;;;;;;29.50;26.00;;;;;;;;5028777;28;29333;-82
2021/06/22 19:11:34;;;;;;;;;32.25;28.25;;;;;;;;5031895;28;46355;-84
2021/06/22 19:14:00;;;;;;;;;34.25;28.50;;;;;;;;5036306;28;38308;-84
2021/06/22 19:16:26;;;;;;;;;34.00;27.50;;;;;;;;5034095;28;46100;-84
2021/06/22 19:19:00;;;;;;;;;33.75;28.50;;;;;;;;5036199;28;29641;-89
2021/06/22 19:21:54;;;;;;;;;34.00;29.75;;;;;;;;5019007;28;29421;-89
2021/06/22 19:25:01;;;;;;;;;35.00;31.50;;;;;;;;5018733;28;32214;-88
2021/06/22 19:43:52;;;;;;;;;;;;;;;;;;;;;
2021/06/22 19:47:03;;;;;;;;;;;;;;;;;;;;;
2021/06/22 20:34:18;;;;;;;;;;;;;;;;;;;;;
2021/06/22 21:08:27;;;;;;;;;46.50;36.75;;;;;;;;4954837;28;30887;-89
2021/06/22 21:26:29;;;;;;;;;49.25;36.50;;;;;;;;4950485;28;29605;-87
2021/06/22 21:32:47;;;;;;;;;47.75;36.75;;;;;;;;4993172;28;29611;-88
2021/06/22 22:18:47;;;;;;;;;;;;;;;;;;;;;
2021/06/22 22:21:13;;;;;;;;;43.75;38.00;;;;;;;;5016990;28;58205;-84
2021/06/22 22:23:39;;;;;;;;;47.25;37.75;;;;;;;;5064209;28;43615;-81
2021/06/22 22:30:05;;;;;;;;;;;;;;;;;;;;;
2021/06/22 22:38:33;;;;;;;;;47.00;37.00;;;;;;;;4880106;29;29564;-87
2021/06/22 22:44:35;;;;;;;;;45.50;36.75;;;;;;;;4818797;29;47124;-86
2021/06/22 22:53:25;;;;;;;;;47.50;37.25;;;;;;;;4769958;29;47281;-87
2021/06/22 22:56:34;;;;;;;;;45.50;36.75;;;;;;;;4787472;29;47075;-88
2021/06/22 23:18:34;;;;;;;;;47.50;38.25;;;;;;;;4862462;29;47051;-86
2021/06/22 23:27:20;;;;;;;;;;;;;;;;;;;;;
